createdAt,value
2017-12-25T00:01:10.254Z,1013.72
2017-12-25T00:06:06.000Z,1013.72
2017-12-25T00:11:01.718Z,1013.70
2017-12-25T00:15:58.733Z,1013.62
2017-12-25T00:20:54.204Z,1013.56
2017-12-25T00:25:50.092Z,1013.51
2017-12-25T00:30:45.827Z,1013.52
2017-12-25T00:35:41.731Z,1013.40
2017-12-25T00:40:37.533Z,1013.26
2017-12-25T00:45:33.044Z,1013.32
2017-12-25T00:50:28.870Z,1013.40
2017-12-25T00:55:24.702Z,1013.31
2017-12-25T01:00:20.255Z,1013.22
2017-12-25T01:05:16.014Z,1013.19
2017-12-25T01:10:12.698Z,1013.02
2017-12-25T01:15:08.163Z,1012.99
2017-12-25T01:20:04.123Z,1013.05
2017-12-25T01:25:00.687Z,1013.08
2017-12-25T01:29:56.578Z,1013.01
2017-12-25T01:34:52.205Z,1012.91
2017-12-25T01:39:48.311Z,1013.06
2017-12-25T01:44:43.883Z,1013.06
2017-12-25T01:49:39.705Z,1012.97
2017-12-25T01:54:35.460Z,1012.92
2017-12-25T01:59:32.522Z,1012.92
2017-12-25T02:04:28.326Z,1012.86
2017-12-25T02:09:24.828Z,1012.80
2017-12-25T02:14:20.207Z,1012.79
2017-12-25T02:19:15.951Z,1012.86
2017-12-25T02:24:12.063Z,1012.84
2017-12-25T02:29:08.610Z,1012.76
2017-12-25T02:34:05.379Z,1012.78
2017-12-25T02:39:00.413Z,1012.70
2017-12-25T02:43:56.436Z,1012.65
2017-12-25T02:48:52.206Z,1012.66
2017-12-25T02:53:48.305Z,1012.68
2017-12-25T02:58:45.276Z,1012.58
2017-12-25T03:03:40.526Z,1012.54
2017-12-25T03:08:36.410Z,1012.62
2017-12-25T03:13:32.208Z,1012.48
2017-12-25T03:18:27.715Z,1012.57
2017-12-25T03:23:24.640Z,1012.44
2017-12-25T03:28:21.166Z,1012.35
2017-12-25T03:33:16.481Z,1012.40
2017-12-25T03:38:12.174Z,1012.31
2017-12-25T03:43:09.207Z,1012.24
2017-12-25T03:48:04.877Z,1012.26
2017-12-25T03:53:00.384Z,1012.10
2017-12-25T03:57:56.191Z,1012.12
2017-12-25T04:02:52.071Z,1012.10
2017-12-25T04:07:47.942Z,1012.01
2017-12-25T04:12:43.549Z,1011.99
2017-12-25T04:17:39.229Z,1011.97
2017-12-25T04:22:34.793Z,1011.90
2017-12-25T04:27:30.523Z,1011.89
2017-12-25T04:32:27.935Z,1011.83
2017-12-25T04:37:23.461Z,1011.84
2017-12-25T04:42:19.198Z,1011.79
2017-12-25T04:47:16.178Z,1011.63
2017-12-25T04:52:12.819Z,1011.63
2017-12-25T04:57:08.273Z,1011.61
2017-12-25T05:02:04.130Z,1011.58
2017-12-25T05:06:59.989Z,1011.68
2017-12-25T05:11:56.670Z,1011.47
2017-12-25T05:16:52.059Z,1011.56
2017-12-25T05:21:48.665Z,1011.48
2017-12-25T05:26:44.539Z,1011.58
2017-12-25T05:31:41.339Z,1011.38
2017-12-25T05:36:36.728Z,1011.39
2017-12-25T05:41:32.489Z,1011.32
2017-12-25T05:46:28.061Z,1011.32
2017-12-25T05:51:23.853Z,1011.22
2017-12-25T05:56:19.631Z,1011.23
2017-12-25T06:01:15.607Z,1011.25
2017-12-25T06:06:11.383Z,1011.23
2017-12-25T06:11:07.093Z,1011.20
2017-12-25T06:16:02.768Z,1011.21
2017-12-25T06:20:59.838Z,1011.19
2017-12-25T06:25:55.362Z,1011.15
2017-12-25T06:30:52.629Z,1011.21
2017-12-25T06:35:47.970Z,1011.10
2017-12-25T06:40:43.803Z,1011.21
2017-12-25T06:45:39.196Z,1011.14
2017-12-25T06:50:35.217Z,1011.15
2017-12-25T06:55:31.995Z,1011.07
2017-12-25T07:00:28.554Z,1011.04
2017-12-25T07:05:24.019Z,1010.99
2017-12-25T07:10:19.420Z,1010.93
2017-12-25T07:15:15.078Z,1010.96
2017-12-25T07:20:11.148Z,1011.02
2017-12-25T07:25:06.791Z,1010.94
2017-12-25T07:30:02.253Z,1010.93
2017-12-25T07:34:58.483Z,1011.01
2017-12-25T07:39:54.988Z,1010.87
2017-12-25T07:44:50.596Z,1010.90
2017-12-25T07:49:46.351Z,1010.89
2017-12-25T07:54:42.467Z,1010.81
2017-12-25T07:59:38.545Z,1010.86
2017-12-25T08:04:34.263Z,1010.80
2017-12-25T08:09:30.014Z,1010.79
2017-12-25T08:14:25.329Z,1010.73
2017-12-25T08:19:21.350Z,1010.78
2017-12-25T08:24:17.134Z,1010.79
2017-12-25T08:29:13.115Z,1010.76
2017-12-25T08:34:09.150Z,1010.77
2017-12-25T08:39:05.664Z,1010.74
2017-12-25T08:44:01.574Z,1010.73
2017-12-25T08:48:58.610Z,1010.72
2017-12-25T08:53:54.129Z,1010.76
2017-12-25T08:58:49.714Z,1010.68
2017-12-25T09:03:47.496Z,1010.72
2017-12-25T09:08:43.680Z,1010.71
2017-12-25T09:13:39.252Z,1010.84
2017-12-25T09:18:34.815Z,1010.81
2017-12-25T09:23:32.390Z,1010.73
2017-12-25T09:28:28.003Z,1010.87
2017-12-25T09:33:23.858Z,1010.85
2017-12-25T09:38:20.023Z,1010.80
2017-12-25T09:43:15.660Z,1010.93
2017-12-25T09:48:12.019Z,1010.86
2017-12-25T09:53:08.178Z,1010.87
2017-12-25T09:58:04.804Z,1010.81
2017-12-25T10:03:00.456Z,1010.73
2017-12-25T10:07:57.158Z,1010.70
2017-12-25T10:12:53.320Z,1010.63
2017-12-25T10:17:49.019Z,1010.53
2017-12-25T10:22:45.636Z,1010.43
2017-12-25T10:27:41.659Z,1010.41
2017-12-25T10:32:37.370Z,1010.28
2017-12-25T10:37:33.430Z,1010.24
2017-12-25T10:42:29.439Z,1010.17
2017-12-25T10:47:25.223Z,1010.11
2017-12-25T10:52:20.973Z,1010.00
2017-12-25T10:57:16.750Z,1009.89
2017-12-25T11:02:12.527Z,1009.82
2017-12-25T11:07:09.289Z,1009.64
2017-12-25T11:12:04.860Z,1009.64
2017-12-25T11:17:00.505Z,1009.55
2017-12-25T11:21:57.452Z,1009.53
2017-12-25T11:26:54.058Z,1009.51
2017-12-25T11:31:49.605Z,1009.50
2017-12-25T11:36:45.449Z,1009.41
2017-12-25T11:41:42.109Z,1009.28
2017-12-25T11:46:37.536Z,1009.23
2017-12-25T11:51:33.469Z,1009.04
2017-12-25T11:56:28.853Z,1009.03
2017-12-25T12:01:25.270Z,1009.01
2017-12-25T12:06:20.984Z,1008.96
2017-12-25T12:11:17.575Z,1008.75
2017-12-25T12:16:14.036Z,1008.63
2017-12-25T12:21:10.280Z,1008.63
2017-12-25T12:26:05.734Z,1008.55
2017-12-25T12:31:02.728Z,1008.42
2017-12-25T12:35:58.327Z,1008.29
2017-12-25T12:40:53.762Z,1008.24
2017-12-25T12:45:49.854Z,1008.12
2017-12-25T12:50:45.729Z,1008.09
2017-12-25T12:55:41.442Z,1008.06
2017-12-25T13:00:36.847Z,1007.93
2017-12-25T13:05:33.571Z,1007.87
2017-12-25T13:10:30.221Z,1007.68
2017-12-25T13:15:25.659Z,1007.61
2017-12-25T13:20:22.340Z,1007.53
2017-12-25T13:25:17.840Z,1007.51
2017-12-25T13:30:13.687Z,1007.50
2017-12-25T13:35:10.768Z,1007.56
2017-12-25T13:40:06.383Z,1007.50
2017-12-25T13:45:03.235Z,1007.38
2017-12-25T13:50:00.076Z,1007.32
2017-12-25T13:54:55.556Z,1007.25
2017-12-25T13:59:51.282Z,1007.17
2017-12-25T14:04:47.182Z,1007.10
2017-12-25T14:09:43.010Z,1007.20
2017-12-25T14:14:39.731Z,1007.12
2017-12-25T14:19:35.222Z,1007.15
2017-12-25T14:24:31.977Z,1007.11
2017-12-25T14:29:27.526Z,1007.07
2017-12-25T14:34:23.330Z,1007.07
2017-12-25T14:39:19.155Z,1007.10
2017-12-25T14:44:14.914Z,1006.84
2017-12-25T14:49:11.824Z,1006.98
2017-12-25T14:54:07.361Z,1006.83
2017-12-25T14:59:03.315Z,1006.90
2017-12-25T15:03:58.778Z,1006.87
2017-12-25T15:08:54.570Z,1006.81
2017-12-25T15:13:50.619Z,1006.66
2017-12-25T15:18:46.395Z,1006.59
2017-12-25T15:23:42.153Z,1006.54
2017-12-25T15:28:38.987Z,1006.54
2017-12-25T15:33:34.395Z,1006.54
2017-12-25T15:38:30.886Z,1006.37
2017-12-25T15:43:26.482Z,1006.40
2017-12-25T15:48:22.321Z,1006.26
2017-12-25T15:53:19.040Z,1006.30
2017-12-25T15:58:15.477Z,1006.17
2017-12-25T16:03:10.993Z,1006.19
2017-12-25T16:08:06.781Z,1006.06
2017-12-25T16:13:02.446Z,1006.04
2017-12-25T16:17:58.294Z,1005.96
2017-12-25T16:22:54.873Z,1005.92
2017-12-25T16:27:50.438Z,1005.77
2017-12-25T16:32:47.152Z,1005.73
2017-12-25T16:37:43.515Z,1005.56
2017-12-25T16:42:39.128Z,1005.55
2017-12-25T16:47:34.973Z,1005.52
2017-12-25T16:52:30.635Z,1005.46
2017-12-25T16:57:26.459Z,1005.38
2017-12-25T17:02:22.555Z,1005.19
2017-12-25T17:07:18.133Z,1005.16
2017-12-25T17:12:14.017Z,1005.10
2017-12-25T17:17:09.546Z,1005.12
2017-12-25T17:22:05.310Z,1005.10
2017-12-25T17:27:00.971Z,1005.08
2017-12-25T17:31:56.935Z,1004.94
2017-12-25T17:36:53.574Z,1004.85
2017-12-25T17:41:49.097Z,1004.88
2017-12-25T17:46:45.705Z,1004.94
2017-12-25T17:51:42.194Z,1004.75
2017-12-25T17:56:37.810Z,1004.70
2017-12-25T18:01:33.505Z,1004.61
2017-12-25T18:06:30.158Z,1004.40
2017-12-25T18:11:25.855Z,1004.28
2017-12-25T18:16:22.577Z,1004.19
2017-12-25T18:21:19.177Z,1004.16
2017-12-25T18:26:14.686Z,1004.14
2017-12-25T18:31:12.430Z,1004.00
2017-12-25T18:36:08.722Z,1004.06
2017-12-25T18:41:04.010Z,1004.02
2017-12-25T18:46:01.118Z,1003.95
2017-12-25T18:50:56.470Z,1003.84
2017-12-25T18:55:52.014Z,1003.76
2017-12-25T19:00:47.796Z,1003.62
2017-12-25T19:05:43.433Z,1003.62
2017-12-25T19:10:39.036Z,1003.57
2017-12-25T19:15:34.756Z,1003.55
2017-12-25T19:20:30.352Z,1003.50
2017-12-25T19:25:26.689Z,1003.37
2017-12-25T19:30:22.353Z,1003.26
2017-12-25T19:35:17.981Z,1003.22
2017-12-25T19:40:14.805Z,1003.16
2017-12-25T19:45:11.261Z,1003.03
2017-12-25T19:50:06.510Z,1003.05
2017-12-25T19:55:02.276Z,1002.91
2017-12-25T19:59:58.128Z,1002.80
2017-12-25T20:04:54.468Z,1002.67
2017-12-25T20:09:50.434Z,1002.61
2017-12-25T20:14:46.004Z,1002.59
2017-12-25T20:19:42.820Z,1002.45
2017-12-25T20:24:38.497Z,1002.46
2017-12-25T20:29:34.187Z,1002.40
2017-12-25T20:34:29.894Z,1002.25
2017-12-25T20:39:25.471Z,1002.20
2017-12-25T20:44:21.766Z,1002.20
2017-12-25T20:49:17.790Z,1002.00
2017-12-25T20:54:13.799Z,1001.87
2017-12-25T20:59:09.501Z,1001.88
2017-12-25T21:04:05.231Z,1001.85
2017-12-25T21:09:01.616Z,1001.84
2017-12-25T21:13:57.555Z,1001.70
2017-12-25T21:18:53.684Z,1001.64
2017-12-25T21:23:49.439Z,1001.58
2017-12-25T21:28:45.134Z,1001.67
2017-12-25T21:33:40.835Z,1001.55
2017-12-25T21:38:36.661Z,1001.51
2017-12-25T21:43:33.401Z,1001.46
2017-12-25T21:48:29.533Z,1001.35
2017-12-25T21:53:25.029Z,1001.21
2017-12-25T21:58:20.609Z,1001.29
2017-12-25T22:03:17.337Z,1001.18
2017-12-25T22:08:13.038Z,1001.10
2017-12-25T22:13:09.576Z,1000.97
2017-12-25T22:18:04.768Z,1000.85
2017-12-25T22:23:00.505Z,1000.83
2017-12-25T22:27:56.317Z,1000.61
2017-12-25T22:32:52.126Z,1000.57
2017-12-25T22:37:49.232Z,1000.54
2017-12-25T22:42:44.756Z,1000.43
2017-12-25T22:47:42.520Z,1000.54
2017-12-25T22:52:37.604Z,1000.36
2017-12-25T22:57:33.450Z,1000.29
2017-12-25T23:02:29.112Z,1000.23
2017-12-25T23:07:25.628Z,1000.13
2017-12-25T23:12:21.184Z,999.99
2017-12-25T23:17:18.951Z,999.98
2017-12-25T23:22:14.215Z,999.91
2017-12-25T23:27:10.010Z,999.71
2017-12-25T23:32:05.646Z,999.64
2017-12-25T23:37:01.455Z,999.44
2017-12-25T23:41:59.132Z,999.53
2017-12-25T23:46:54.274Z,999.37
2017-12-25T23:51:51.010Z,999.23
2017-12-25T23:56:46.358Z,999.23
